Time;durP1;ratioP1;P1;durP2;ratioP2;P2;SDS_P1;SDS_P2;PMS_P1;PMS_P2;Temp;Humidity;BMP_temperature;BMP_pressure;BME280_temperature;BME280_humidity;BME280_pressure;Samples;Min_cycle;Max_cycle;Signal;HPM_P1;HPM_P2
2023/03/25 00:01:07;;;;;;;8.93;2.20;;;;;;;8.77;88.13;100184.16;4895126;29;20071;-91
2023/03/25 00:03:36;;;;;;;10.15;1.98;;;;;;;8.79;88.21;100186.78;4910898;29;20557;-91
2023/03/25 00:06:05;;;;;;;7.93;1.98;;;;;;;8.79;87.61;100179.88;4900317;29;20117;-91
2023/03/25 00:08:31;;;;;;;9.30;2.00;;;;;;;8.79;87.59;100179.88;4912615;29;20036;-91
2023/03/25 00:10:59;;;;;;;6.32;1.92;;;;;;;8.80;87.38;100183.34;4911758;29;20024;-91
2023/03/25 00:13:26;;;;;;;11.02;2.47;;;;;;;8.80;87.11;100194.59;4900476;29;20032;-92
2023/03/25 00:15:56;;;;;;;7.20;2.10;;;;;;;8.80;87.17;100189.41;4911779;29;20035;-92
2023/03/25 00:18:32;;;;;;;7.45;1.85;;;;;;;8.82;87.37;100185.13;4901344;29;20035;-92
2023/03/25 00:21:02;;;;;;;7.82;2.33;;;;;;;8.80;87.43;100183.34;4892355;29;20486;-92
2023/03/25 00:23:29;;;;;;;10.73;2.22;;;;;;;8.80;86.75;100184.19;4910353;29;20038;-91
2023/03/25 00:26:03;;;;;;;8.93;2.03;;;;;;;8.79;87.45;100182.47;4899620;29;20060;-91
2023/03/25 00:28:32;;;;;;;9.45;2.45;;;;;;;8.76;86.95;100171.13;4899203;29;20020;-91
2023/03/25 00:31:08;;;;;;;;;;;;;;;8.81;87.26;100169.50;4910780;29;20146;-92
2023/03/25 00:33:34;;;;;;;7.10;1.83;;;;;;;8.76;86.19;100179.81;4899627;29;19982;-91
2023/03/25 00:36:03;;;;;;;6.55;1.73;;;;;;;8.71;86.72;100171.03;4910205;29;20747;-91
2023/03/25 00:38:34;;;;;;;9.02;2.20;;;;;;;8.73;86.11;100169.34;4899300;29;20095;-92
2023/03/25 00:41:16;;;;;;;9.35;2.08;;;;;;;8.72;86.30;100180.59;4898547;29;20030;-91
2023/03/25 00:43:42;;;;;;;6.05;1.75;;;;;;;8.69;86.49;100164.94;4900194;29;20498;-92
2023/03/25 00:46:11;;;;;;;8.57;2.22;;;;;;;8.70;86.51;100177.06;4909820;29;20529;-91
2023/03/25 00:48:36;;;;;;;6.30;1.70;;;;;;;8.72;86.08;100167.59;4915445;29;20045;-92
2023/03/25 00:51:06;;;;;;;5.47;1.50;;;;;;;8.70;85.99;100177.06;4897280;29;20040;-91
2023/03/25 00:53:34;;;;;;;9.98;1.73;;;;;;;8.69;86.25;100170.16;4910321;29;20051;-91
2023/03/25 00:56:03;;;;;;;9.85;2.17;;;;;;;8.69;86.05;100175.34;4910567;29;20042;-91
2023/03/25 00:58:33;;;;;;;7.10;1.83;;;;;;;8.69;86.29;100176.22;4911198;29;20091;-91
2023/03/25 01:00:59;;;;;;;5.68;2.10;;;;;;;8.67;85.96;100172.69;4910834;29;20036;-92
2023/03/25 01:03:27;;;;;;;7.78;2.05;;;;;;;8.69;86.19;100164.94;4910827;29;20856;-91
2023/03/25 01:05:54;;;;;;;7.70;2.40;;;;;;;8.66;86.49;100175.25;4899883;29;20039;-91
2023/03/25 01:08:24;;;;;;;8.45;2.50;;;;;;;8.65;86.52;100178.72;4911213;29;20031;-91
2023/03/25 01:10:52;;;;;;;7.30;2.00;;;;;;;8.63;86.34;100170.00;4900263;29;20024;-91
2023/03/25 01:13:23;;;;;;;4.67;1.90;;;;;;;8.63;85.96;100172.59;4900027;29;20333;-91
2023/03/25 01:15:48;;;;;;;5.38;2.03;;;;;;;8.60;86.21;100170.81;4893983;29;20279;-91
2023/03/25 01:18:16;;;;;;;8.10;2.17;;;;;;;8.60;86.70;100168.22;4900116;29;20086;-91
2023/03/25 01:20:49;;;;;;;10.38;2.17;;;;;;;8.57;86.59;100169.88;4910187;29;20056;-91
2023/03/25 01:23:15;;;;;;;7.28;2.47;;;;;;;8.58;86.72;100174.25;4895031;29;20043;-92
2023/03/25 01:25:43;;;;;;;9.63;2.38;;;;;;;8.57;86.70;100175.06;4899505;29;20020;-91
2023/03/25 01:28:08;;;;;;;6.38;2.22;;;;;;;8.54;87.13;100170.69;4902059;29;20039;-91
2023/03/25 01:30:34;;;;;;;6.45;2.55;;;;;;;8.53;87.00;100164.63;4901175;29;20039;-91
2023/03/25 01:33:02;;;;;;;11.13;2.40;;;;;;;8.51;87.47;100160.25;4900922;29;20533;-91
2023/03/25 01:35:28;;;;;;;7.22;2.20;;;;;;;8.51;87.33;100168.03;4913548;29;20398;-92
2023/03/25 01:37:55;;;;;;;7.22;2.17;;;;;;;8.50;87.31;100168.88;4900871;29;20044;-91
2023/03/25 01:40:28;;;;;;;9.20;2.25;;;;;;;8.48;87.62;100178.34;4912886;29;20064;-91
2023/03/25 01:42:53;;;;;;;9.15;2.00;;;;;;;8.46;87.62;100175.72;4913170;29;20020;-91
2023/03/25 01:45:25;;;;;;;6.53;2.58;;;;;;;8.48;88.10;100178.34;4914247;29;20042;-91
2023/03/25 01:48:00;;;;;;;4.82;2.13;;;;;;;8.43;88.09;100178.22;4900277;29;20036;-91
2023/03/25 01:50:27;;;;;;;7.00;2.20;;;;;;;8.41;88.06;100174.72;4912847;29;20084;-91
2023/03/25 01:53:00;;;;;;;6.07;2.25;;;;;;;8.36;88.59;100165.97;4914353;29;20032;-91
2023/03/25 01:55:32;;;;;;;7.88;2.50;;;;;;;8.35;88.90;100164.19;4900779;29;21530;-91
2023/03/25 01:58:11;;;;;;;7.82;2.63;;;;;;;8.33;88.93;100161.56;4912475;29;20031;-92
2023/03/25 02:00:44;;;;;;;6.78;2.33;;;;;;;8.31;88.97;100157.19;4902361;29;20500;-91
2023/03/25 02:03:11;;;;;;;5.43;2.25;;;;;;;8.29;88.98;100159.75;4901194;29;20135;-91
2023/03/25 02:06:07;;;;;;;11.30;3.03;;;;;;;8.34;88.66;100167.63;4912483;29;20146;-91
2023/03/25 02:08:37;;;;;;;6.05;2.00;;;;;;;8.30;88.30;100164.09;4912725;29;20108;-91
2023/03/25 02:11:04;;;;;;;8.35;2.00;;;;;;;8.31;88.67;100162.38;4900984;29;20973;-91
2023/03/25 02:13:32;;;;;;;6.03;2.17;;;;;;;8.30;88.39;100151.13;4918031;29;20050;-91
2023/03/25 02:16:22;;;;;;;5.57;1.70;;;;;;;8.31;89.25;100157.19;4910874;29;20083;-91
2023/03/25 02:19:21;;;;;;;6.55;2.10;;;;;;;8.28;90.19;100151.94;4912297;29;20031;-91
2023/03/25 02:22:36;;;;;;;8.48;2.20;;;;;;;8.28;90.40;100157.13;4902083;29;20063;-91
2023/03/25 02:25:11;;;;;;;8.30;2.10;;;;;;;8.27;90.77;100153.66;4900931;29;20039;-91
2023/03/25 02:27:45;;;;;;;9.10;2.65;;;;;;;8.26;90.97;100156.22;4900553;29;20040;-90
2023/03/25 02:30:52;;;;;;;9.32;2.10;;;;;;;8.23;90.21;100153.56;4912275;29;20068;-91
2023/03/25 02:33:35;;;;;;;6.55;2.20;;;;;;;8.23;90.00;100148.38;4822965;29;20042;-91
2023/03/25 02:36:16;;;;;;;6.25;2.03;;;;;;;8.23;90.04;100161.34;4807892;29;20131;-91
2023/03/25 02:39:14;;;;;;;8.82;2.10;;;;;;;8.21;89.94;100152.63;4886654;29;20048;-92
2023/03/25 02:41:50;;;;;;;8.50;2.10;;;;;;;8.19;90.01;100148.28;4860301;29;20041;-90
2023/03/25 02:44:42;;;;;;;6.32;2.10;;;;;;;8.21;89.72;100150.91;4912317;29;20087;-91
2023/03/25 02:47:15;;;;;;;5.82;1.98;;;;;;;8.18;90.03;100138.78;4901915;29;20059;-90
2023/03/25 02:49:46;;;;;;;7.50;2.05;;;;;;;8.18;90.55;100156.03;4896109;29;20059;-91
2023/03/25 02:52:40;;;;;;;7.82;2.17;;;;;;;8.15;90.75;100149.09;4912355;29;20513;-91
2023/03/25 02:55:10;;;;;;;7.35;1.95;;;;;;;8.14;91.04;100138.63;4901880;29;20040;-91
2023/03/25 02:57:37;;;;;;;;;;;;;;;8.19;90.64;100142.22;4913537;29;20032;-91
2023/03/25 03:00:09;;;;;;;5.00;2.00;;;;;;;8.12;91.78;100141.19;4913348;29;19919;-91
2023/03/25 03:02:36;;;;;;;7.72;1.83;;;;;;;8.06;92.14;100141.06;4900972;29;20040;-91
2023/03/25 03:05:01;;;;;;;7.88;2.08;;;;;;;8.04;92.73;100144.47;4912776;29;20146;-91
2023/03/25 03:07:31;;;;;;;8.93;2.22;;;;;;;8.03;93.41;100150.53;4913834;29;20139;-91
2023/03/25 03:10:07;;;;;;;;;;;;;;;8.04;92.78;100147.97;4902332;29;20111;-91
2023/03/25 03:12:47;;;;;;;8.55;2.20;;;;;;;8.00;94.09;100136.63;4902477;29;20337;-91
2023/03/25 03:15:26;;;;;;;8.65;2.40;;;;;;;7.97;95.08;100140.88;4902905;29;20047;-91
2023/03/25 03:18:08;;;;;;;8.50;2.28;;;;;;;7.97;94.95;100135.69;4902247;29;20080;-91
2023/03/25 03:20:43;;;;;;;9.13;2.20;;;;;;;7.95;95.52;100135.66;4913602;29;20044;-91
2023/03/25 03:23:37;;;;;;;8.27;2.08;;;;;;;7.94;95.81;100139.09;4910433;29;20020;-91
2023/03/25 03:26:19;;;;;;;7.88;2.65;;;;;;;7.90;95.87;100129.47;4868964;29;20475;-94
2023/03/25 03:29:06;;;;;;;7.10;2.00;;;;;;;7.88;96.00;100141.56;4894170;29;20056;-91
2023/03/25 03:31:55;;;;;;;12.25;2.33;;;;;;;7.90;95.00;100134.66;4911554;29;20028;-91
2023/03/25 03:34:33;;;;;;;9.77;2.17;;;;;;;7.88;95.26;100136.38;4899562;29;20134;-92
2023/03/25 03:37:02;;;;;;;10.70;2.33;;;;;;;7.89;94.83;100140.69;4912328;29;20048;-91
2023/03/25 03:39:37;;;;;;;9.13;2.50;;;;;;;7.90;95.95;100131.22;4909632;29;20107;-92
2023/03/25 03:42:13;;;;;;;11.07;2.50;;;;;;;7.88;95.41;100131.19;4902720;29;20035;-90
2023/03/25 03:44:43;;;;;;;8.50;2.22;;;;;;;7.89;94.45;100138.09;4901014;29;20028;-91
2023/03/25 03:47:13;;;;;;;13.82;2.65;;;;;;;7.90;94.67;100132.06;4898888;29;20111;-91
2023/03/25 03:49:46;;;;;;;10.07;2.65;;;;;;;7.95;93.89;100133.06;4899354;29;20040;-91
2023/03/25 03:52:21;;;;;;;11.80;2.33;;;;;;;7.95;94.55;100138.25;4910894;29;20114;-90
2023/03/25 03:54:53;;;;;;;6.72;2.00;;;;;;;7.95;94.64;100120.09;4898372;29;20483;-91
2023/03/25 03:57:38;;;;;;;9.30;2.40;;;;;;;7.93;95.10;100126.09;4911422;29;20107;-91
2023/03/25 04:00:27;;;;;;;11.10;2.15;;;;;;;7.91;93.92;100133.84;4897387;29;20091;-90
2023/03/25 04:03:00;;;;;;;10.70;2.42;;;;;;;7.88;94.40;100127.69;4898926;29;20056;-91
2023/03/25 04:05:33;;;;;;;8.60;2.10;;;;;;;7.87;93.77;100138.91;4911825;29;20036;-91
2023/03/25 04:08:28;;;;;;;14.43;2.58;;;;;;;7.83;94.13;100131.06;4912778;29;20479;-91
2023/03/25 04:11:21;;;;;;;7.28;1.90;;;;;;;7.87;94.51;100136.34;4889763;29;20103;-91
2023/03/25 04:13:54;;;;;;;10.88;1.98;;;;;;;7.88;93.87;100140.66;4897262;29;20071;-91
2023/03/25 04:16:24;;;;;;;7.47;1.95;;;;;;;7.88;94.32;100140.66;4898854;29;20039;-91
2023/03/25 04:18:52;;;;;;;;;;;;;;;7.91;93.73;100131.25;4910057;29;20024;-91
2023/03/25 04:21:19;;;;;;;9.02;2.08;;;;;;;7.89;93.37;100132.03;4898768;29;19926;-91
2023/03/25 04:23:45;;;;;;;8.63;1.55;;;;;;;7.86;93.56;100131.97;4900588;29;20099;-91
2023/03/25 04:26:12;;;;;;;8.43;1.90;;;;;;;7.86;93.84;100137.16;4898428;29;20032;-91
2023/03/25 04:28:40;;;;;;;5.75;1.75;;;;;;;7.84;93.53;100125.03;4910700;29;20035;-90
2023/03/25 04:31:14;;;;;;;9.57;2.15;;;;;;;7.82;93.52;100131.00;4908622;29;20036;-91
2023/03/25 04:33:45;;;;;;;9.43;2.30;;;;;;;7.80;93.84;100128.38;4899614;29;20570;-91
2023/03/25 04:36:22;;;;;;;9.82;1.60;;;;;;;7.80;94.01;100133.56;4899568;29;20459;-91
2023/03/25 04:38:54;;;;;;;7.35;1.67;;;;;;;7.79;94.36;100131.84;4899758;29;20024;-90
2023/03/25 04:41:23;;;;;;;9.15;1.95;;;;;;;7.77;93.88;100128.31;4899386;29;20085;-91
2023/03/25 04:43:49;;;;;;;7.68;1.70;;;;;;;7.79;93.78;100137.03;4914779;29;20043;-92
2023/03/25 04:46:16;;;;;;;8.48;2.15;;;;;;;7.79;94.09;100138.72;4898579;29;20040;-91
2023/03/25 04:48:46;;;;;;;7.70;1.80;;;;;;;7.77;95.06;100138.69;4898089;29;20091;-91
2023/03/25 04:51:13;;;;;;;10.73;2.17;;;;;;;7.77;94.87;100138.69;4910673;29;20478;-91
2023/03/25 04:53:42;;;;;;;10.73;2.17;;;;;;;7.73;96.15;100139.44;4911488;29;20032;-90
2023/03/25 04:56:14;;;;;;;5.60;1.67;;;;;;;7.70;96.52;100139.38;4899998;29;20027;-91
2023/03/25 04:58:46;;;;;;;7.72;2.00;;;;;;;7.68;96.82;100138.47;4910783;29;20047;-92
2023/03/25 05:01:40;;;;;;;9.35;1.80;;;;;;;7.64;96.79;100136.66;4899785;29;20035;-90
2023/03/25 05:04:07;;;;;;;6.80;1.80;;;;;;;7.61;97.17;100142.63;4894170;29;20047;-91
2023/03/25 05:06:38;;;;;;;6.63;2.05;;;;;;;7.58;96.85;100132.19;4900065;29;20061;-91
2023/03/25 05:09:04;;;;;;;8.10;2.08;;;;;;;7.59;96.82;100140.84;4909345;29;20510;-91
2023/03/25 05:11:40;;;;;;;9.45;2.00;;;;;;;7.59;97.45;100143.44;4909689;29;20055;-91
2023/03/25 05:14:12;;;;;;;9.50;1.92;;;;;;;7.59;97.09;100140.84;4911411;29;20032;-92
2023/03/25 05:16:44;;;;;;;8.60;2.00;;;;;;;7.60;97.27;100134.81;4897953;29;20032;-92
2023/03/25 05:19:17;;;;;;;7.85;1.73;;;;;;;7.57;97.62;100134.75;4910138;29;20067;-91
2023/03/25 05:21:43;;;;;;;7.07;1.80;;;;;;;7.58;97.93;100146.88;4909472;29;20024;-91
2023/03/25 05:24:12;;;;;;;11.05;2.17;;;;;;;7.56;98.04;100138.16;4901285;29;20490;-91
2023/03/25 05:26:39;;;;;;;8.95;1.83;;;;;;;7.56;97.85;100138.16;4895994;29;20043;-91
2023/03/25 05:29:07;;;;;;;11.60;2.35;;;;;;;7.56;97.54;100149.44;4898612;29;20067;-92
2023/03/25 05:31:33;;;;;;;7.55;2.13;;;;;;;7.59;96.73;100153.81;4910609;29;20036;-92
2023/03/25 05:33:58;;;;;;;10.63;1.92;;;;;;;7.62;96.57;100148.72;4896254;29;20486;-92
2023/03/25 05:36:24;;;;;;;9.20;2.08;;;;;;;7.63;96.29;100160.81;4897667;29;20027;-92
2023/03/25 05:38:53;;;;;;;8.07;1.80;;;;;;;7.64;96.03;100154.81;4898876;29;20973;-91
2023/03/25 05:41:18;;;;;;;7.60;2.20;;;;;;;7.66;95.83;100160.88;4911339;29;20999;-92
2023/03/25 05:43:49;;;;;;;9.23;2.00;;;;;;;7.67;94.91;100149.69;4907897;29;20044;-91
2023/03/25 05:46:18;;;;;;;6.93;2.03;;;;;;;7.70;95.15;100164.44;4915715;29;20028;-91
2023/03/25 05:48:49;;;;;;;8.40;2.00;;;;;;;7.70;94.70;100147.16;4897149;29;20491;-90
2023/03/25 05:51:16;;;;;;;9.20;2.10;;;;;;;7.71;94.16;100153.25;4899319;29;20024;-91
2023/03/25 05:53:57;;;;;;;6.97;1.95;;;;;;;7.71;93.85;100169.66;4898097;29;20039;-92
2023/03/25 05:56:25;;;;;;;8.75;2.08;;;;;;;7.73;93.85;100169.69;4910866;29;20042;-92
2023/03/25 05:58:51;;;;;;;9.07;2.30;;;;;;;7.74;93.49;100167.16;4909410;29;20115;-92
2023/03/25 06:01:18;;;;;;;5.00;1.80;;;;;;;7.75;93.02;100160.22;4910756;29;20409;-91
2023/03/25 06:03:44;;;;;;;8.75;2.25;;;;;;;7.75;93.03;100166.31;4910160;29;20028;-91
2023/03/25 06:06:17;;;;;;;11.52;2.20;;;;;;;7.72;93.17;100178.31;4899793;29;20043;-91
2023/03/25 06:08:48;;;;;;;8.65;2.25;;;;;;;7.72;92.74;100171.44;4909215;29;20032;-92
2023/03/25 06:11:15;;;;;;;9.20;1.83;;;;;;;7.74;91.83;100194.81;4899297;29;20042;-91
2023/03/25 06:13:51;;;;;;;9.18;2.25;;;;;;;7.71;91.98;100192.16;4898678;29;20062;-92
2023/03/25 06:16:22;;;;;;;7.60;1.60;;;;;;;7.71;91.83;100185.22;4897617;29;20043;-92
2023/03/25 06:18:49;;;;;;;7.72;2.08;;;;;;;7.70;92.07;100187.78;4903440;29;20604;-91
2023/03/25 06:21:25;;;;;;;8.88;1.98;;;;;;;7.69;91.98;100183.44;4901729;29;20055;-91
2023/03/25 06:23:55;;;;;;;5.93;1.65;;;;;;;7.69;92.03;100188.63;4903329;29;20043;-91
2023/03/25 06:26:28;;;;;;;10.38;2.17;;;;;;;7.68;91.83;100184.28;4914160;29;20566;-91
2023/03/25 06:28:53;;;;;;;7.53;1.90;;;;;;;7.71;91.56;100182.63;4912938;29;20107;-92
2023/03/25 06:31:21;;;;;;;7.82;2.30;;;;;;;7.72;91.20;100178.31;4912696;29;20462;-91
2023/03/25 06:33:48;;;;;;;8.00;2.20;;;;;;;7.70;90.84;100173.09;4912843;29;20036;-91
2023/03/25 06:36:19;;;;;;;10.38;2.80;;;;;;;7.72;90.61;100174.03;4902815;29;20040;-91
2023/03/25 06:38:49;;;;;;;11.75;2.50;;;;;;;7.74;90.52;100172.34;4900708;29;20042;-92
2023/03/25 06:41:19;;;;;;;12.82;2.53;;;;;;;7.76;90.74;100181.03;4900928;29;20031;-91
2023/03/25 06:43:47;;;;;;;13.13;2.60;;;;;;;7.80;90.03;100189.75;4900996;29;21629;-91
2023/03/25 06:46:12;;;;;;;11.05;2.40;;;;;;;7.86;90.46;100191.63;4901079;29;20031;-91
2023/03/25 06:48:38;;;;;;;12.98;3.20;;;;;;;7.92;90.44;100207.31;4900149;29;20039;-92
2023/03/25 06:51:04;;;;;;;9.82;2.47;;;;;;;8.00;89.46;100198.88;4901417;29;20035;-92
2023/03/25 06:53:29;;;;;;;9.75;2.50;;;;;;;8.05;89.98;100206.78;4903034;29;20024;-91
2023/03/25 06:55:56;;;;;;;14.15;2.50;;;;;;;8.10;89.71;100210.38;4911191;29;20561;-92
2023/03/25 06:58:22;;;;;;;10.02;2.55;;;;;;;8.10;89.19;100201.72;4901052;29;20040;-91
2023/03/25 07:00:52;;;;;;;9.07;2.40;;;;;;;8.13;88.85;100215.63;4913262;29;20031;-91
2023/03/25 07:03:24;;;;;;;10.20;2.40;;;;;;;8.14;88.62;100199.22;4901656;29;20044;-91
2023/03/25 07:05:56;;;;;;;12.25;2.78;;;;;;;8.17;89.00;100195.81;4913642;29;20083;-91
2023/03/25 07:08:24;;;;;;;10.63;2.53;;;;;;;8.19;89.13;100197.59;4913925;29;20031;-91
2023/03/25 07:10:50;;;;;;;8.65;2.42;;;;;;;8.25;88.53;100202.03;4902088;29;20035;-90
2023/03/25 07:13:15;;;;;;;11.75;2.90;;;;;;;8.27;89.57;100202.06;4914111;29;20062;-91
2023/03/25 07:15:40;;;;;;;13.50;2.92;;;;;;;8.26;89.36;100192.56;4895116;29;20031;-91
2023/03/25 07:18:09;;;;;;;10.93;2.63;;;;;;;8.25;89.24;100183.00;4913175;29;20060;-91
2023/03/25 07:20:34;;;;;;;11.25;2.50;;;;;;;8.25;90.48;100190.81;4901549;29;20035;-90
2023/03/25 07:23:02;;;;;;;11.77;2.42;;;;;;;8.30;89.72;100196.97;4911747;29;20032;-91
2023/03/25 07:25:27;;;;;;;8.88;2.60;;;;;;;8.33;90.22;100197.91;4901334;29;20024;-91
2023/03/25 07:27:55;;;;;;;11.80;3.05;;;;;;;8.38;90.03;100207.53;4899864;29;20031;-91
2023/03/25 07:30:23;;;;;;;12.63;2.58;;;;;;;8.36;91.08;100207.50;4900643;29;20114;-90
2023/03/25 07:32:48;;;;;;;12.55;2.60;;;;;;;8.38;90.64;100204.94;4902919;29;20459;-90
2023/03/25 07:35:14;;;;;;;12.88;2.45;;;;;;;8.34;90.08;100210.06;4910953;29;20031;-91
2023/03/25 07:37:48;;;;;;;12.20;2.45;;;;;;;8.31;90.71;100206.50;4911113;29;20032;-91
2023/03/25 07:40:15;;;;;;;14.27;2.80;;;;;;;8.29;91.30;100213.38;4911784;29;20036;-91
2023/03/25 07:42:41;;;;;;;10.65;3.00;;;;;;;8.28;91.06;100212.50;4901362;29;20028;-91
2023/03/25 07:45:06;;;;;;;9.27;2.58;;;;;;;8.27;91.64;100234.13;4911665;29;20039;-91
2023/03/25 07:47:32;;;;;;;16.30;3.20;;;;;;;8.25;91.47;100220.22;4900970;29;20040;-91
2023/03/25 07:49:57;;;;;;;10.38;2.25;;;;;;;8.19;91.88;100215.75;4901684;29;20024;-91
2023/03/25 07:52:22;;;;;;;10.98;2.40;;;;;;;8.18;92.19;100228.69;4909370;29;20032;-91
2023/03/25 07:54:48;;;;;;;17.10;2.72;;;;;;;8.18;92.41;100233.88;4911143;29;20024;-91
2023/03/25 07:57:13;;;;;;;15.35;2.80;;;;;;;8.15;92.37;100221.75;4894405;29;20032;-91
2023/03/25 07:59:39;;;;;;;17.75;2.83;;;;;;;8.13;92.38;100238.09;4910294;29;20043;-91
2023/03/25 08:02:05;;;;;;;17.40;2.78;;;;;;;8.14;92.76;100232.06;4898525;29;20055;-92
2023/03/25 08:04:31;;;;;;;11.45;2.67;;;;;;;8.17;93.22;100229.56;4911913;29;20192;-91
2023/03/25 08:06:59;;;;;;;16.27;2.80;;;;;;;8.29;92.75;100235.03;4901182;29;20115;-91
2023/03/25 08:09:27;;;;;;;8.07;2.50;;;;;;;8.44;93.13;100237.09;4910749;29;20028;-91
2023/03/25 08:11:53;;;;;;;8.95;2.50;;;;;;;8.61;92.29;100234.88;4899735;29;20744;-91
2023/03/25 08:14:21;;;;;;;11.07;2.75;;;;;;;8.74;90.71;100251.63;4900514;29;20032;-91
2023/03/25 08:16:47;;;;;;;13.23;3.15;;;;;;;8.79;90.59;100247.41;4914958;29;20024;-90
2023/03/25 08:19:12;;;;;;;12.52;2.65;;;;;;;8.81;90.73;100257.84;4896273;29;21093;-92
2023/03/25 08:21:43;;;;;;;11.07;2.45;;;;;;;8.79;90.70;100255.22;4899169;29;20056;-91
2023/03/25 08:24:12;;;;;;;11.48;2.80;;;;;;;8.80;91.15;100245.69;4899986;29;20027;-92
2023/03/25 08:26:43;;;;;;;14.73;2.95;;;;;;;8.79;92.37;100257.81;4890365;29;20032;-92
2023/03/25 08:29:08;;;;;;;14.32;3.65;;;;;;;8.77;92.46;100277.66;4894856;29;20091;-92
2023/03/25 08:31:37;;;;;;;11.32;2.75;;;;;;;8.70;92.30;100261.09;4892013;29;20028;-91
2023/03/25 08:34:04;;;;;;;16.50;3.60;;;;;;;8.63;93.56;100263.50;4902345;29;20031;-92
2023/03/25 08:36:32;;;;;;;15.43;3.47;;;;;;;8.56;94.75;100277.19;4906238;29;20051;-92
2023/03/25 08:39:06;;;;;;;11.63;3.03;;;;;;;8.50;95.38;100276.22;4907608;29;20036;-92
2023/03/25 08:41:32;;;;;;;14.95;3.22;;;;;;;8.49;95.92;100281.38;4899245;29;20058;-92
2023/03/25 08:44:00;;;;;;;13.52;3.13;;;;;;;8.45;95.98;100287.34;4899869;29;20487;-90
2023/03/25 08:46:28;;;;;;;18.30;3.63;;;;;;;8.42;96.86;100280.31;4892450;29;20028;-92
2023/03/25 08:49:01;;;;;;;11.68;2.97;;;;;;;8.44;97.51;100285.53;4915091;29;20028;-92
2023/03/25 08:51:30;;;;;;;10.90;2.90;;;;;;;8.46;97.39;100268.31;4899133;29;20038;-91
2023/03/25 08:53:59;;;;;;;14.13;3.05;;;;;;;8.47;97.47;100265.75;4904182;29;20036;-91
2023/03/25 08:56:27;;;;;;;12.88;2.72;;;;;;;8.55;98.32;100267.66;4909188;29;20031;-92
2023/03/25 08:59:01;;;;;;;12.70;2.80;;;;;;;8.64;98.42;100276.50;4909425;29;20091;-91
2023/03/25 09:01:32;;;;;;;15.88;3.15;;;;;;;8.77;97.78;100274.19;4909224;29;20081;-91
2023/03/25 09:04:00;;;;;;;17.48;3.45;;;;;;;8.86;96.32;100272.69;4896788;29;20045;-92
2023/03/25 09:06:36;;;;;;;16.38;3.20;;;;;;;8.90;95.29;100267.53;4886731;29;20037;-92
2023/03/25 09:09:04;;;;;;;15.43;3.20;;;;;;;9.02;95.82;100275.56;4887484;29;20044;-92
2023/03/25 09:11:32;;;;;;;13.65;3.03;;;;;;;9.20;95.23;100280.28;4920300;29;20032;-91
2023/03/25 09:13:58;;;;;;;14.90;3.73;;;;;;;9.33;93.98;100264.06;4917697;29;20035;-91
2023/03/25 09:16:23;;;;;;;17.10;3.70;;;;;;;9.53;95.25;100267.06;4896661;29;20028;-92
2023/03/25 09:18:55;;;;;;;16.13;3.35;;;;;;;9.69;91.60;100270.81;4894658;29;20021;-92
2023/03/25 09:21:23;;;;;;;18.02;3.92;;;;;;;9.69;91.72;100278.63;4895836;29;20060;-91
2023/03/25 09:23:49;;;;;;;14.75;4.05;;;;;;;9.73;90.89;100275.22;4893002;29;20106;-91
2023/03/25 09:26:14;;;;;;;17.38;3.83;;;;;;;9.85;93.01;100273.69;4911130;29;20100;-91
2023/03/25 09:28:39;;;;;;;17.13;4.10;;;;;;;9.96;90.34;100259.09;4891281;29;20042;-91
2023/03/25 09:31:06;;;;;;;17.13;4.00;;;;;;;10.15;90.55;100259.41;4916182;29;20446;-92
2023/03/25 09:33:32;;;;;;;13.38;3.65;;;;;;;10.33;88.51;100261.44;4897782;29;20587;-92
2023/03/25 09:35:57;;;;;;;16.40;3.70;;;;;;;10.38;87.14;100278.03;4920285;29;20104;-91
2023/03/25 09:38:30;;;;;;;16.45;3.67;;;;;;;10.38;87.88;100271.09;4908614;29;20047;-91
2023/03/25 09:41:25;;;;;;;18.92;3.90;;;;;;;10.42;87.30;100275.50;4903670;29;20083;-93
2023/03/25 09:44:06;;;;;;;16.83;3.53;;;;;;;10.58;89.42;100278.31;4894323;29;20025;-95
2023/03/25 09:46:42;;;;;;;12.90;4.30;;;;;;;10.64;87.50;100282.75;4901406;29;20058;-92
2023/03/25 09:49:16;;;;;;;15.18;3.65;;;;;;;10.57;85.60;100293.09;4918082;29;20541;-91
2023/03/25 09:51:55;;;;;;;13.75;3.75;;;;;;;10.58;85.13;100297.44;4913722;29;20034;-91
2023/03/25 09:54:56;;;;;;;15.27;4.00;;;;;;;10.69;86.52;100276.75;4923596;29;20083;-92
2023/03/25 09:57:29;;;;;;;18.25;4.72;;;;;;;10.81;84.31;100269.97;4910292;29;20059;-91
2023/03/25 10:00:05;;;;;;;15.10;4.03;;;;;;;10.98;83.75;100293.63;4903786;29;20047;-92
2023/03/25 10:02:38;;;;;;;20.42;4.00;;;;;;;10.90;81.95;100291.78;4905638;29;20127;-92
2023/03/25 10:05:17;;;;;;;17.85;4.53;;;;;;;10.75;83.74;100287.25;4898856;29;20035;-92
2023/03/25 10:08:03;;;;;;;14.30;4.10;;;;;;;10.85;86.29;100301.28;4898847;29;20040;-92
2023/03/25 10:10:54;;;;;;;16.38;4.20;;;;;;;11.02;84.95;100279.78;4900727;29;20028;-91
2023/03/25 10:13:54;;;;;;;13.65;4.30;;;;;;;10.96;84.17;100286.69;4904716;29;20024;-92
2023/03/25 10:16:41;;;;;;;17.00;4.25;;;;;;;11.04;84.96;100275.47;4904087;29;20043;-92
2023/03/25 10:19:30;;;;;;;16.40;4.00;;;;;;;11.13;83.24;100278.19;4910980;29;20043;-92
2023/03/25 10:22:22;;;;;;;18.48;3.92;;;;;;;11.24;82.19;100281.81;4888213;29;20090;-92
2023/03/25 10:24:52;;;;;;;15.23;4.25;;;;;;;11.34;81.35;100276.69;4900197;29;20115;-92
2023/03/25 10:27:40;;;;;;;19.90;4.32;;;;;;;11.36;82.20;100280.19;4876966;29;20047;-92
2023/03/25 10:30:14;;;;;;;17.15;4.18;;;;;;;11.30;80.57;100267.97;4871843;29;20099;-92
2023/03/25 10:33:03;;;;;;;19.55;4.70;;;;;;;11.18;81.41;100273.91;4877072;29;20128;-91
2023/03/25 10:35:46;;;;;;;18.10;4.68;;;;;;;11.10;81.47;100281.63;4876666;29;20171;-91
2023/03/25 10:38:19;;;;;;;17.27;4.60;;;;;;;11.04;79.16;100268.53;4865722;29;20122;-92
2023/03/25 10:41:07;;;;;;;19.52;3.90;;;;;;;10.93;79.17;100288.34;4895675;29;20039;-92
2023/03/25 10:43:41;;;;;;;12.73;4.20;;;;;;;10.84;80.90;100286.50;4875747;29;20024;-92
2023/03/25 10:46:42;;;;;;;16.95;3.90;;;;;;;10.85;81.72;100282.16;4863765;29;20033;-91
2023/03/25 10:49:13;;;;;;;17.10;4.18;;;;;;;10.85;82.20;100289.97;4861261;29;20511;-92
2023/03/25 10:51:44;;;;;;;20.65;4.20;;;;;;;10.86;79.40;100289.13;4861027;29;20029;-91
2023/03/25 10:54:17;;;;;;;15.73;4.05;;;;;;;10.79;77.88;100293.41;4860762;29;20072;-92
2023/03/25 10:56:52;;;;;;;15.90;4.18;;;;;;;10.86;77.92;100290.03;4866543;29;20182;-90
2023/03/25 10:59:45;;;;;;;21.00;4.00;;;;;;;10.98;77.92;100298.84;4913432;29;20039;-91
2023/03/25 11:02:21;;;;;;;13.48;3.25;;;;;;;11.02;74.69;100283.28;4935455;29;20046;-92
2023/03/25 11:04:54;;;;;;;14.90;3.42;;;;;;;11.16;73.51;100278.22;4911952;29;20082;-92
2023/03/25 11:08:00;;;;;;;9.75;2.88;;;;;;;11.38;74.64;100292.38;4903932;29;20024;-92
2023/03/25 11:10:33;;;;;;;18.05;3.40;;;;;;;11.62;73.54;100291.78;4915819;29;20494;-91
2023/03/25 11:13:06;;;;;;;13.82;3.00;;;;;;;11.64;71.85;100287.47;4899560;29;20035;-92
2023/03/25 11:15:40;;;;;;;13.50;3.00;;;;;;;11.62;70.78;100330.91;4899233;29;20080;-91
2023/03/25 11:18:33;;;;;;;10.32;1.92;;;;;;;11.66;70.01;100295.31;4899260;29;20398;-92
2023/03/25 11:21:19;;;;;;;9.23;2.08;;;;;;;11.76;69.22;100304.06;4899450;29;20032;-92
2023/03/25 11:23:51;;;;;;;10.02;1.90;;;;;;;11.79;67.68;100296.31;4898815;29;20039;-92
2023/03/25 11:26:26;;;;;;;10.52;2.03;;;;;;;11.75;68.40;100304.97;4900404;29;20139;-92
2023/03/25 11:29:01;;;;;;;12.07;1.92;;;;;;;11.69;69.75;100300.56;4912949;29;20039;-92
2023/03/25 11:31:36;;;;;;;9.68;2.15;;;;;;;11.72;68.28;100304.94;4934852;29;20043;-92
2023/03/25 11:34:12;;;;;;;12.27;1.90;;;;;;;11.69;66.81;100299.66;4932037;29;20063;-91
2023/03/25 11:36:46;;;;;;;9.65;2.05;;;;;;;11.64;68.02;100312.66;4899326;29;20044;-92
2023/03/25 11:39:38;;;;;;;10.30;1.95;;;;;;;11.68;69.87;100309.22;4913798;29;20109;-92
2023/03/25 11:42:15;;;;;;;8.93;1.70;;;;;;;11.71;69.55;100305.78;4898737;29;20207;-91
2023/03/25 11:44:52;;;;;;;10.93;2.10;;;;;;;11.70;68.16;100306.63;4898292;29;20494;-91
2023/03/25 11:47:36;;;;;;;15.88;2.13;;;;;;;11.66;66.18;100311.81;4901482;29;20043;-91
2023/03/25 11:50:03;;;;;;;8.25;1.92;;;;;;;11.61;66.44;100317.84;4916409;29;20027;-93
2023/03/25 11:52:55;;;;;;;8.27;2.00;;;;;;;11.54;67.54;100319.50;4899830;29;20032;-92
2023/03/25 11:55:57;;;;;;;11.88;2.05;;;;;;;11.41;70.09;100301.97;4898710;29;20068;-92